Time;durP1;ratioP1;P1;durP2;ratioP2;P2;SDS_P1;SDS_P2;PMS_P1;PMS_P2;Temp;Humidity;BMP_temperature;BMP_pressure;BME280_temperature;BME280_humidity;BME280_pressure;Samples;Min_cycle;Max_cycle;Signal;HPM_P1;HPM_P2
2023/06/16 00:00:11;;;;;;;1.10;1.00;;;18.60;82.00;;;;;;5052440;28;20204;-63
2023/06/16 00:02:41;;;;;;;1.10;0.70;;;18.70;82.10;;;;;;5053114;28;20224;-63
2023/06/16 00:05:10;;;;;;;0.90;0.80;;;18.60;82.20;;;;;;5049423;28;20731;-64
2023/06/16 00:07:39;;;;;;;0.60;0.52;;;18.60;82.80;;;;;;5048582;28;20203;-63
2023/06/16 00:10:08;;;;;;;3.35;0.80;;;18.60;82.50;;;;;;5050932;28;20213;-63
2023/06/16 00:12:37;;;;;;;0.70;0.60;;;18.60;82.50;;;;;;5049411;28;20213;-63
2023/06/16 00:15:08;;;;;;;0.98;0.88;;;18.60;83.00;;;;;;5050182;28;20236;-63
2023/06/16 00:17:44;;;;;;;0.60;0.50;;;18.60;83.10;;;;;;5050748;28;20222;-63
2023/06/16 00:20:13;;;;;;;0.70;0.70;;;18.50;83.20;;;;;;5046709;28;20218;-63
2023/06/16 00:22:47;;;;;;;1.33;1.08;;;18.50;83.40;;;;;;5049158;28;20282;-64
2023/06/16 00:25:17;;;;;;;2.20;1.27;;;18.50;83.70;;;;;;5049291;28;20221;-64
2023/06/16 00:27:45;;;;;;;0.80;0.70;;;18.50;83.90;;;;;;5047294;28;20216;-64
2023/06/16 00:30:14;;;;;;;0.80;0.70;;;18.50;84.10;;;;;;5049620;28;20217;-64
2023/06/16 00:32:43;;;;;;;0.90;0.70;;;18.50;84.10;;;;;;5050133;28;20682;-63
2023/06/16 00:35:11;;;;;;;0.82;0.70;;;18.50;84.10;;;;;;5055733;28;20656;-63
2023/06/16 00:37:39;;;;;;;1.20;0.85;;;18.50;84.20;;;;;;5057624;28;20617;-63
2023/06/16 00:40:09;;;;;;;0.98;0.73;;;18.50;84.40;;;;;;5055036;28;20211;-63
2023/06/16 00:42:37;;;;;;;1.77;1.30;;;18.50;84.20;;;;;;5048029;28;20242;-63
2023/06/16 00:45:05;;;;;;;0.70;0.60;;;18.50;84.60;;;;;;5050758;28;20657;-63
2023/06/16 00:47:35;;;;;;;0.80;0.80;;;18.50;84.60;;;;;;5048738;28;20212;-63
2023/06/16 00:50:04;;;;;;;1.67;1.00;;;18.50;84.70;;;;;;5056112;28;20214;-63
2023/06/16 00:52:36;;;;;;;1.35;0.98;;;18.50;84.90;;;;;;5068874;28;20199;-63
2023/06/16 00:55:08;;;;;;;1.00;0.90;;;18.50;85.10;;;;;;5049117;28;20231;-63
2023/06/16 00:57:36;;;;;;;1.05;0.85;;;18.40;85.20;;;;;;5050501;28;20287;-63
2023/06/16 01:00:07;;;;;;;1.10;1.00;;;18.40;85.40;;;;;;5048287;28;20604;-63
2023/06/16 01:02:36;;;;;;;0.60;0.60;;;18.40;85.90;;;;;;5046585;28;20244;-62
2023/06/16 01:05:06;;;;;;;0.80;0.77;;;18.30;85.90;;;;;;5046726;28;20232;-63
2023/06/16 01:07:40;;;;;;;1.10;1.00;;;18.30;86.00;;;;;;5046079;28;20207;-63
2023/06/16 01:10:14;;;;;;;0.75;0.60;;;18.30;86.40;;;;;;5058119;28;20211;-64
2023/06/16 01:13:14;;;;;;;1.00;0.50;;;18.30;86.70;;;;;;5042438;28;20679;-63
2023/06/16 01:15:46;;;;;;;1.15;1.00;;;18.30;87.30;;;;;;5056754;28;20231;-63
2023/06/16 01:18:22;;;;;;;1.00;0.90;;;18.20;87.50;;;;;;5069773;28;20207;-63
2023/06/16 01:20:56;;;;;;;0.70;0.68;;;18.20;87.70;;;;;;5069149;28;20200;-64
2023/06/16 01:23:34;;;;;;;1.00;0.70;;;18.10;87.70;;;;;;5071128;28;20218;-64
2023/06/16 01:26:07;;;;;;;1.20;1.10;;;18.10;88.40;;;;;;5074576;28;20301;-63
2023/06/16 01:28:40;;;;;;;1.05;0.95;;;18.10;88.70;;;;;;5069472;28;20574;-64
2023/06/16 01:31:12;;;;;;;0.70;0.63;;;18.00;88.50;;;;;;5077193;28;20198;-63
2023/06/16 01:33:41;;;;;;;1.05;0.82;;;18.10;88.50;;;;;;5072696;28;20575;-63
2023/06/16 01:36:10;;;;;;;0.80;0.70;;;18.10;88.70;;;;;;5069927;28;20274;-63
2023/06/16 01:38:38;;;;;;;0.70;0.50;;;18.00;88.90;;;;;;5072013;28;20206;-63
2023/06/16 01:41:10;;;;;;;0.80;0.60;;;18.10;89.40;;;;;;5072910;28;20218;-64
2023/06/16 01:43:40;;;;;;;1.05;0.68;;;18.10;90.00;;;;;;5068407;28;20239;-64
2023/06/16 01:46:08;;;;;;;1.20;1.10;;;18.10;90.40;;;;;;5077319;28;20226;-64
2023/06/16 01:48:36;;;;;;;0.90;0.65;;;18.10;90.10;;;;;;5072709;28;20203;-63
2023/06/16 01:51:05;;;;;;;0.60;0.60;;;18.00;90.10;;;;;;5076542;28;20210;-64
2023/06/16 01:53:32;;;;;;;1.15;0.90;;;18.00;89.90;;;;;;5073333;28;20206;-63
2023/06/16 01:56:00;;;;;;;1.60;0.80;;;18.00;90.00;;;;;;5078926;28;20226;-64
2023/06/16 01:58:30;;;;;;;1.17;1.08;;;18.00;90.00;;;;;;5075878;28;20207;-63
2023/06/16 02:01:04;;;;;;;1.63;1.52;;;17.90;90.10;;;;;;5071599;28;20258;-64
2023/06/16 02:03:38;;;;;;;1.42;0.82;;;17.90;90.50;;;;;;5073151;28;20218;-64
2023/06/16 02:06:11;;;;;;;1.00;0.85;;;17.90;90.40;;;;;;5077383;28;20239;-64
2023/06/16 02:08:43;;;;;;;1.75;1.23;;;17.80;90.50;;;;;;5074162;28;20261;-64
2023/06/16 02:11:11;;;;;;;1.10;0.95;;;17.80;90.70;;;;;;5074768;28;20199;-64
2023/06/16 02:13:41;;;;;;;1.58;0.73;;;17.70;90.90;;;;;;5071470;28;20199;-64
2023/06/16 02:16:09;;;;;;;0.82;0.80;;;17.70;91.00;;;;;;5056155;28;20243;-64
2023/06/16 02:18:39;;;;;;;1.02;0.93;;;17.70;91.10;;;;;;5062241;28;20279;-64
2023/06/16 02:21:07;;;;;;;0.80;0.70;;;17.70;91.30;;;;;;5057586;28;20211;-64
2023/06/16 02:23:35;;;;;;;0.80;0.80;;;17.70;91.40;;;;;;5059657;28;20697;-64
2023/06/16 02:26:02;;;;;;;1.30;1.20;;;17.70;91.90;;;;;;5053709;28;20243;-63
2023/06/16 02:28:30;;;;;;;1.50;0.98;;;17.60;91.50;;;;;;5051684;28;20215;-62
2023/06/16 02:31:00;;;;;;;0.70;0.60;;;17.60;91.80;;;;;;5051187;28;20204;-63
2023/06/16 02:33:28;;;;;;;2.05;0.93;;;17.50;91.90;;;;;;5058478;28;20207;-63
2023/06/16 02:35:56;;;;;;;0.60;0.50;;;17.50;92.20;;;;;;5048531;28;20266;-63
2023/06/16 02:38:24;;;;;;;1.60;0.93;;;17.50;92.40;;;;;;5050581;28;20229;-63
2023/06/16 02:40:52;;;;;;;0.90;0.70;;;17.40;92.70;;;;;;5044464;28;20726;-63
2023/06/16 02:43:20;;;;;;;0.88;0.68;;;17.40;92.80;;;;;;5051474;28;20212;-62
2023/06/16 02:45:48;;;;;;;1.08;0.98;;;17.40;93.00;;;;;;5064193;28;20222;-63
2023/06/16 02:48:17;;;;;;;0.98;0.88;;;17.40;93.40;;;;;;5063240;28;20218;-63
2023/06/16 02:50:45;;;;;;;0.85;0.85;;;17.30;94.00;;;;;;5048162;28;20316;-63
2023/06/16 02:53:14;;;;;;;0.93;0.82;;;17.30;94.30;;;;;;5050129;28;20204;-63
2023/06/16 02:55:43;;;;;;;1.05;0.95;;;17.20;94.30;;;;;;5050999;28;20258;-62
2023/06/16 02:58:10;;;;;;;1.10;0.80;;;17.20;94.80;;;;;;5050288;28;20235;-62
2023/06/16 03:00:39;;;;;;;0.80;0.80;;;17.20;94.90;;;;;;5053584;28;20206;-62
2023/06/16 03:03:09;;;;;;;1.00;0.90;;;17.10;95.40;;;;;;5064034;28;20203;-63
2023/06/16 03:05:38;;;;;;;1.92;1.13;;;17.10;95.50;;;;;;5052492;28;20330;-63
2023/06/16 03:08:06;;;;;;;1.35;1.13;;;17.00;95.40;;;;;;5056385;28;20208;-62
2023/06/16 03:10:34;;;;;;;1.33;0.95;;;16.90;95.90;;;;;;5050687;28;20219;-62
2023/06/16 03:13:02;;;;;;;1.00;0.90;;;16.90;96.50;;;;;;5049932;28;20285;-61
2023/06/16 03:15:30;;;;;;;0.75;0.70;;;16.80;97.10;;;;;;5058284;28;20249;-62
2023/06/16 03:17:58;;;;;;;2.17;1.38;;;16.80;97.30;;;;;;5068172;28;20207;-64
2023/06/16 03:20:30;;;;;;;0.80;0.77;;;16.80;97.60;;;;;;5078144;28;20656;-63
2023/06/16 03:22:59;;;;;;;1.67;1.17;;;16.80;97.90;;;;;;5080489;28;20195;-63
2023/06/16 03:25:28;;;;;;;0.70;0.60;;;16.80;98.40;;;;;;5074765;28;20768;-61
2023/06/16 03:27:56;;;;;;;1.60;0.90;;;16.70;98.90;;;;;;5072608;28;20199;-63
2023/06/16 03:30:24;;;;;;;0.80;0.80;;;16.70;99.10;;;;;;5068961;28;20211;-63
2023/06/16 03:32:52;;;;;;;0.95;0.88;;;16.70;99.80;;;;;;5078541;28;20260;-62
2023/06/16 03:35:20;;;;;;;3.25;1.30;;;16.70;99.90;;;;;;5068637;28;20646;-63
2023/06/16 03:37:48;;;;;;;1.17;0.82;;;16.70;99.90;;;;;;5070838;28;20211;-63
2023/06/16 03:40:18;;;;;;;1.00;0.85;;;16.70;99.90;;;;;;5070056;28;20215;-64
2023/06/16 03:42:47;;;;;;;1.60;0.95;;;16.60;99.90;;;;;;5069300;28;20195;-63
2023/06/16 03:45:15;;;;;;;1.42;1.00;;;16.60;99.90;;;;;;5071194;28;20230;-63
2023/06/16 03:47:42;;;;;;;1.30;1.20;;;16.50;99.90;;;;;;5080100;28;20281;-63
2023/06/16 03:50:11;;;;;;;1.23;1.00;;;16.50;99.90;;;;;;5076197;28;20203;-63
2023/06/16 03:52:39;;;;;;;1.17;0.70;;;16.50;99.90;;;;;;5081101;28;20222;-63
2023/06/16 03:55:07;;;;;;;1.10;1.00;;;16.40;99.90;;;;;;5073894;28;20229;-62
2023/06/16 03:57:37;;;;;;;1.17;1.08;;;16.40;99.90;;;;;;5086816;28;20207;-63
2023/06/16 04:00:08;;;;;;;1.02;0.80;;;16.30;99.90;;;;;;5080920;28;20211;-63
2023/06/16 04:02:36;;;;;;;0.80;0.55;;;16.20;99.90;;;;;;5069198;28;20222;-62
2023/06/16 04:05:06;;;;;;;1.23;1.13;;;16.10;99.90;;;;;;5067477;28;20233;-62
2023/06/16 04:07:34;;;;;;;0.93;0.85;;;16.10;99.90;;;;;;5071656;28;20205;-62
2023/06/16 04:10:02;;;;;;;1.08;0.90;;;15.90;99.90;;;;;;5080882;28;20205;-63
2023/06/16 04:12:30;;;;;;;1.25;0.90;;;15.90;99.90;;;;;;5068411;28;20618;-61
2023/06/16 04:14:59;;;;;;;1.10;0.90;;;15.90;99.90;;;;;;5066646;28;20231;-62
2023/06/16 04:17:27;;;;;;;0.80;0.73;;;15.90;99.90;;;;;;5073656;22;20242;-69
2023/06/16 04:19:57;;;;;;;1.92;0.93;;;15.90;99.90;;;;;;5033937;28;20201;-69
2023/06/16 04:22:25;;;;;;;0.95;0.80;;;15.90;99.90;;;;;;5029930;28;20204;-71
2023/06/16 04:24:53;;;;;;;0.95;0.90;;;15.80;99.90;;;;;;5019964;28;20299;-71
2023/06/16 04:27:23;;;;;;;0.85;0.82;;;15.90;99.90;;;;;;5025351;28;20229;-70
2023/06/16 04:29:52;;;;;;;0.70;0.68;;;15.90;99.90;;;;;;5028227;28;20288;-72
2023/06/16 04:32:21;;;;;;;0.93;0.82;;;15.80;99.90;;;;;;5030400;28;20220;-72
2023/06/16 04:34:51;;;;;;;0.93;0.85;;;15.90;99.90;;;;;;5027635;28;20258;-71
2023/06/16 04:37:19;;;;;;;1.55;1.45;;;15.90;99.90;;;;;;5027482;28;20311;-72
2023/06/16 04:39:47;;;;;;;1.13;1.02;;;16.00;99.90;;;;;;5028013;28;20270;-71
2023/06/16 04:42:15;;;;;;;1.08;0.98;;;16.00;99.90;;;;;;5027583;28;20288;-73
2023/06/16 04:44:43;;;;;;;0.70;0.70;;;16.10;99.90;;;;;;5024639;28;20698;-72
2023/06/16 04:47:12;;;;;;;1.52;1.00;;;16.20;99.90;;;;;;5001327;28;20232;-72
2023/06/16 04:49:41;;;;;;;1.00;0.90;;;16.30;99.90;;;;;;5012195;28;20912;-72
2023/06/16 04:52:09;;;;;;;1.80;1.27;;;16.40;99.90;;;;;;5021466;28;20216;-72
2023/06/16 04:54:37;;;;;;;1.10;1.00;;;16.40;99.90;;;;;;5020518;28;20219;-72
2023/06/16 04:57:06;;;;;;;1.10;0.90;;;16.50;99.90;;;;;;5018587;28;20260;-72
2023/06/16 04:59:35;;;;;;;1.17;0.80;;;16.60;99.90;;;;;;5020832;28;20210;-72
2023/06/16 05:02:03;;;;;;;1.05;0.95;;;16.70;99.90;;;;;;5019391;28;20205;-72
2023/06/16 05:04:31;;;;;;;1.25;1.08;;;16.80;99.90;;;;;;5018097;28;20640;-72
2023/06/16 05:07:00;;;;;;;0.95;0.82;;;16.90;99.90;;;;;;5018250;28;20232;-72
2023/06/16 05:09:28;;;;;;;0.90;0.90;;;17.00;99.90;;;;;;5018628;28;20209;-72
2023/06/16 05:11:56;;;;;;;1.45;1.35;;;17.10;99.90;;;;;;5019574;28;20213;-73
2023/06/16 05:14:24;;;;;;;0.70;0.60;;;17.20;99.90;;;;;;5020305;28;20579;-72
2023/06/16 05:16:52;;;;;;;0.80;0.73;;;17.30;99.90;;;;;;5016682;28;20236;-72
2023/06/16 05:19:20;;;;;;;1.08;0.80;;;17.40;99.90;;;;;;5021136;28;20224;-73
2023/06/16 05:21:48;;;;;;;1.15;1.05;;;17.50;99.90;;;;;;5021347;28;20244;-72
2023/06/16 05:24:17;;;;;;;1.20;1.10;;;17.60;99.90;;;;;;5017820;28;20216;-73
2023/06/16 05:26:45;;;;;;;1.13;0.80;;;17.70;99.90;;;;;;5016869;28;20737;-72
2023/06/16 05:29:13;;;;;;;0.90;0.75;;;17.70;99.90;;;;;;5019277;28;20212;-72
2023/06/16 05:31:41;;;;;;;0.82;0.63;;;17.80;99.90;;;;;;5015863;28;20215;-73
2023/06/16 05:34:09;;;;;;;1.83;0.90;;;17.90;99.90;;;;;;5018541;28;20251;-73
2023/06/16 05:36:37;;;;;;;0.70;0.65;;;18.10;99.90;;;;;;5016345;28;20251;-72
2023/06/16 05:39:06;;;;;;;1.08;0.90;;;18.10;99.90;;;;;;5018387;28;21032;-72
2023/06/16 05:41:36;;;;;;;1.85;0.75;;;18.30;99.90;;;;;;5019077;28;20207;-72
2023/06/16 05:44:07;;;;;;;0.80;0.80;;;18.40;99.90;;;;;;5019164;28;20216;-71
2023/06/16 05:46:35;;;;;;;1.17;1.08;;;18.50;99.90;;;;;;5017181;28;20228;-71
2023/06/16 05:49:02;;;;;;;1.92;0.73;;;18.60;99.90;;;;;;5016252;28;20211;-71
2023/06/16 05:51:30;;;;;;;0.77;0.60;;;18.70;99.90;;;;;;5017256;28;20196;-71
2023/06/16 05:53:58;;;;;;;0.95;0.82;;;18.80;99.90;;;;;;5019949;28;20259;-71
2023/06/16 05:56:26;;;;;;;0.80;0.60;;;18.90;99.90;;;;;;5016430;28;20224;-70
2023/06/16 05:58:55;;;;;;;1.40;1.10;;;19.00;99.90;;;;;;5019076;28;20228;-71
2023/06/16 06:01:23;;;;;;;0.80;0.65;;;19.20;99.90;;;;;;5027120;28;20204;-71
2023/06/16 06:03:52;;;;;;;0.65;0.52;;;19.40;99.90;;;;;;5025409;28;20204;-70
2023/06/16 06:06:20;;;;;;;1.00;0.90;;;19.50;99.90;;;;;;5023173;28;20232;-70
2023/06/16 06:08:48;;;;;;;0.80;0.80;;;19.60;99.90;;;;;;5027835;28;20628;-69
2023/06/16 06:11:16;;;;;;;0.68;0.50;;;19.80;99.90;;;;;;5027008;28;20219;-70
2023/06/16 06:13:45;;;;;;;3.92;0.75;;;19.90;99.90;;;;;;5016801;28;20202;-69
2023/06/16 06:16:14;;;;;;;0.80;0.80;;;20.10;99.90;;;;;;5023674;28;20217;-69
2023/06/16 06:18:43;;;;;;;0.77;0.70;;;20.20;99.90;;;;;;5027841;28;20214;-70
2023/06/16 06:21:11;;;;;;;0.70;0.50;;;20.20;99.90;;;;;;5028136;28;20256;-69
2023/06/16 06:23:39;;;;;;;1.05;0.80;;;20.40;99.90;;;;;;5021949;28;20210;-65
2023/06/16 06:26:07;;;;;;;0.90;0.75;;;20.50;99.00;;;;;;5020537;28;20232;-65
2023/06/16 06:28:35;;;;;;;1.05;0.60;;;20.50;98.20;;;;;;5014234;28;20686;-65
2023/06/16 06:31:03;;;;;;;1.27;1.17;;;20.70;99.00;;;;;;5009045;28;20677;-65
2023/06/16 06:33:32;;;;;;;1.45;1.00;;;20.80;98.90;;;;;;5018115;28;20616;-65
2023/06/16 06:36:00;;;;;;;0.60;0.40;;;20.90;99.50;;;;;;5020663;28;20661;-65
2023/06/16 06:38:28;;;;;;;0.90;0.68;;;20.90;98.10;;;;;;5014479;28;20554;-65
2023/06/16 06:40:56;;;;;;;1.20;1.10;;;21.00;99.70;;;;;;5024407;28;20264;-65
2023/06/16 06:43:25;;;;;;;0.90;0.82;;;21.20;98.60;;;;;;5024984;28;20229;-66
2023/06/16 06:45:53;;;;;;;0.60;0.52;;;21.30;97.80;;;;;;5032449;28;20280;-65
2023/06/16 06:48:26;;;;;;;0.68;0.63;;;21.50;97.10;;;;;;5033018;28;20551;-65
2023/06/16 06:50:55;;;;;;;0.70;0.60;;;21.60;97.20;;;;;;5033474;28;20292;-65
2023/06/16 06:53:23;;;;;;;1.88;0.80;;;21.60;97.30;;;;;;5033260;28;20217;-65
2023/06/16 06:55:51;;;;;;;1.55;0.60;;;21.60;97.30;;;;;;5032597;28;20206;-65
2023/06/16 06:58:19;;;;;;;0.60;0.40;;;21.70;96.00;;;;;;5032502;28;20230;-65
2023/06/16 07:00:47;;;;;;;0.70;0.50;;;21.70;96.80;;;;;;5032525;28;20209;-65
2023/06/16 07:03:15;;;;;;;0.80;0.70;;;21.80;96.90;;;;;;5033209;28;20209;-65
2023/06/16 07:05:43;;;;;;;0.75;0.70;;;21.80;96.00;;;;;;5032073;28;20638;-65
2023/06/16 07:08:12;;;;;;;0.60;0.50;;;21.80;96.20;;;;;;5013070;28;20725;-65
2023/06/16 07:10:40;;;;;;;0.60;0.40;;;22.00;96.80;;;;;;5023713;28;20214;-66
2023/06/16 07:13:08;;;;;;;1.33;0.75;;;22.10;96.30;;;;;;5024723;28;20210;-65
2023/06/16 07:15:36;;;;;;;0.90;0.80;;;22.10;96.10;;;;;;5032826;28;20228;-65
2023/06/16 07:18:04;;;;;;;1.13;0.70;;;22.10;95.30;;;;;;5031854;28;20244;-65
2023/06/16 07:20:32;;;;;;;0.60;0.52;;;22.10;95.20;;;;;;5032745;28;20221;-65
2023/06/16 07:23:00;;;;;;;0.70;0.60;;;22.20;95.10;;;;;;5032741;28;20212;-65
2023/06/16 07:25:32;;;;;;;1.52;1.05;;;22.40;95.00;;;;;;5017729;28;20211;-65
2023/06/16 07:28:00;;;;;;;0.63;0.60;;;22.40;94.60;;;;;;5022735;28;21173;-65
2023/06/16 07:30:28;;;;;;;0.90;0.70;;;22.40;94.90;;;;;;5017901;28;20206;-65
2023/06/16 07:32:56;;;;;;;0.60;0.50;;;22.50;95.20;;;;;;5021017;28;20207;-65
2023/06/16 07:35:24;;;;;;;1.30;0.90;;;22.60;95.70;;;;;;5026686;28;20269;-65
2023/06/16 07:37:52;;;;;;;0.65;0.63;;;22.70;94.30;;;;;;5031984;28;20279;-67
2023/06/16 07:40:20;;;;;;;1.00;0.90;;;22.90;95.10;;;;;;5032393;28;20214;-65
2023/06/16 07:42:50;;;;;;;0.63;0.47;;;23.00;94.20;;;;;;5024225;28;20641;-65
2023/06/16 07:45:18;;;;;;;0.60;0.50;;;23.10;93.50;;;;;;5024023;28;20210;-65
2023/06/16 07:47:46;;;;;;;1.90;1.00;;;23.30;94.60;;;;;;5031736;28;20704;-65
2023/06/16 07:50:15;;;;;;;0.80;0.40;;;23.60;94.20;;;;;;5024733;28;20616;-65
2023/06/16 07:52:43;;;;;;;0.60;0.50;;;23.70;93.90;;;;;;5022920;28;20219;-66
2023/06/16 07:55:12;;;;;;;0.70;0.60;;;23.70;93.30;;;;;;5028079;28;20295;-66
2023/06/16 07:57:40;;;;;;;0.60;0.50;;;23.80;93.20;;;;;;5019986;28;20242;-66
2023/06/16 08:00:12;;;;;;;0.80;0.60;;;23.90;93.80;;;;;;5023138;28;20238;-65
2023/06/16 08:02:40;;;;;;;0.80;0.70;;;24.00;93.60;;;;;;5024415;28;20424;-66
2023/06/16 08:05:09;;;;;;;0.80;0.65;;;24.20;92.70;;;;;;5023576;28;20573;-65
2023/06/16 08:07:37;;;;;;;0.90;0.73;;;24.40;93.40;;;;;;5031594;28;20241;-66
2023/06/16 08:10:07;;;;;;;0.80;0.70;;;24.60;92.40;;;;;;5031060;28;20314;-66
2023/06/16 08:12:35;;;;;;;0.60;0.40;;;24.60;92.50;;;;;;5024473;28;20214;-65
2023/06/16 08:15:03;;;;;;;0.70;0.70;;;24.60;91.10;;;;;;5030717;28;20477;-65
2023/06/16 08:17:33;;;;;;;0.60;0.50;;;24.60;91.90;;;;;;5024633;28;20452;-65
2023/06/16 08:20:01;;;;;;;0.90;0.90;;;24.60;91.90;;;;;;5013305;28;20694;-65
2023/06/16 08:22:29;;;;;;;0.80;0.65;;;24.60;91.50;;;;;;5031798;28;20261;-65
2023/06/16 08:24:58;;;;;;;1.42;0.80;;;24.80;92.10;;;;;;5030815;28;20258;-65
2023/06/16 08:27:26;;;;;;;0.63;0.52;;;25.00;91.60;;;;;;5031244;28;20716;-66
2023/06/16 08:29:54;;;;;;;0.60;0.60;;;25.10;91.60;;;;;;5031029;28;20211;-66
2023/06/16 08:32:22;;;;;;;0.60;0.47;;;25.20;90.80;;;;;;5031535;28;20214;-66
2023/06/16 08:34:52;;;;;;;0.70;0.60;;;25.40;90.70;;;;;;5021991;28;20272;-65
2023/06/16 08:37:20;;;;;;;1.13;0.90;;;25.40;89.70;;;;;;5016193;28;20334;-66
2023/06/16 08:39:57;;;;;;;0.60;0.50;;;25.60;90.40;;;;;;5029095;28;20199;-65
2023/06/16 08:42:25;;;;;;;1.33;0.95;;;25.80;90.50;;;;;;5023133;28;20586;-65
2023/06/16 08:44:54;;;;;;;0.70;0.50;;;26.20;91.00;;;;;;5019831;28;20265;-65
2023/06/16 08:47:22;;;;;;;1.00;1.00;;;26.50;91.00;;;;;;5031079;28;20711;-65
2023/06/16 08:49:54;;;;;;;0.82;0.82;;;26.70;88.40;;;;;;5021357;28;20487;-66
2023/06/16 08:52:24;;;;;;;2.65;0.77;;;26.80;90.30;;;;;;5019469;28;20293;-66
2023/06/16 08:55:13;;;;;;;0.73;0.70;;;26.90;89.40;;;;;;5013969;28;20212;-66
2023/06/16 08:57:46;;;;;;;0.60;0.50;;;27.20;86.50;;;;;;5022542;28;20228;-66
2023/06/16 09:00:15;;;;;;;0.82;0.75;;;27.40;82.40;;;;;;5030652;28;20287;-66
2023/06/16 09:02:48;;;;;;;0.60;0.50;;;27.00;79.00;;;;;;5031058;28;20266;-66
2023/06/16 09:05:19;;;;;;;0.90;0.45;;;26.90;79.00;;;;;;5030586;28;20667;-66
2023/06/16 09:07:49;;;;;;;0.85;0.75;;;27.10;80.60;;;;;;5030630;28;20228;-66
2023/06/16 09:10:18;;;;;;;0.90;0.80;;;27.00;80.20;;;;;;5026626;28;20207;-66
2023/06/16 09:12:52;;;;;;;0.70;0.70;;;27.10;78.40;;;;;;5030569;28;20681;-66
2023/06/16 09:15:21;;;;;;;0.80;0.80;;;27.30;78.00;;;;;;5024137;28;20595;-65
2023/06/16 09:17:50;;;;;;;0.90;0.77;;;27.50;79.10;;;;;;5029932;28;20808;-66
2023/06/16 09:20:22;;;;;;;1.42;1.00;;;27.40;78.90;;;;;;5030510;28;20212;-66
2023/06/16 09:22:59;;;;;;;0.80;0.57;;;27.50;77.50;;;;;;5030230;28;20675;-65
2023/06/16 09:25:27;;;;;;;0.88;0.88;;;27.60;77.20;;;;;;5030028;28;20212;-66
2023/06/16 09:27:56;;;;;;;0.60;0.40;;;27.60;77.00;;;;;;5029538;28;20309;-65
2023/06/16 09:30:31;;;;;;;1.10;0.57;;;27.80;78.10;;;;;;5029966;28;20590;-66
2023/06/16 09:32:59;;;;;;;0.60;0.50;;;28.30;79.90;;;;;;5030210;28;20230;-66
2023/06/16 09:35:30;;;;;;;1.00;0.60;;;28.60;77.20;;;;;;5030172;28;20197;-66
2023/06/16 09:38:00;;;;;;;0.98;0.88;;;28.50;77.00;;;;;;5030074;28;20220;-65
2023/06/16 09:40:30;;;;;;;0.70;0.50;;;28.60;75.20;;;;;;5029781;28;20262;-66
2023/06/16 09:43:00;;;;;;;0.60;0.50;;;28.70;75.80;;;;;;5021443;28;20224;-65
2023/06/16 09:45:30;;;;;;;0.95;0.73;;;28.60;74.20;;;;;;5029729;28;20204;-66
2023/06/16 09:48:03;;;;;;;0.80;0.70;;;28.60;76.00;;;;;;5029656;28;20315;-65
2023/06/16 09:50:33;;;;;;;0.80;0.70;;;28.70;74.10;;;;;;5030556;28;20192;-66
2023/06/16 09:53:06;;;;;;;0.70;0.50;;;28.90;72.60;;;;;;5030051;28;20634;-66
2023/06/16 09:55:37;;;;;;;0.68;0.57;;;29.00;72.00;;;;;;5029906;28;20212;-66
2023/06/16 09:58:06;;;;;;;0.95;0.80;;;29.20;73.70;;;;;;5029694;28;20232;-66
2023/06/16 10:00:34;;;;;;;0.70;0.57;;;29.30;72.60;;;;;;5030137;28;20251;-66
2023/06/16 10:03:04;;;;;;;0.90;0.70;;;29.60;72.50;;;;;;5029825;28;20232;-66
2023/06/16 10:05:35;;;;;;;0.70;0.63;;;29.90;71.60;;;;;;5029866;28;20270;-66
2023/06/16 10:08:05;;;;;;;0.60;0.60;;;29.70;71.60;;;;;;5027467;28;20228;-66
2023/06/16 10:10:34;;;;;;;0.80;0.60;;;30.00;73.00;;;;;;5024470;28;20663;-66
2023/06/16 10:13:06;;;;;;;0.70;0.60;;;30.30;72.70;;;;;;5021303;28;20632;-66
2023/06/16 10:15:38;;;;;;;1.10;0.60;;;30.20;70.90;;;;;;5030972;28;20616;-66
2023/06/16 10:18:08;;;;;;;0.80;0.68;;;29.80;71.90;;;;;;5033506;28;20663;-66
2023/06/16 10:20:41;;;;;;;0.70;0.52;;;29.90;71.10;;;;;;5033757;28;20579;-66
2023/06/16 10:23:10;;;;;;;0.73;0.70;;;30.00;73.40;;;;;;5034268;28;20208;-66
2023/06/16 10:25:40;;;;;;;0.82;0.70;;;30.00;69.30;;;;;;5033263;28;20622;-66
2023/06/16 10:28:11;;;;;;;0.70;0.60;;;30.00;70.60;;;;;;5033032;28;20236;-66
2023/06/16 10:30:40;;;;;;;0.70;0.60;;;30.10;70.00;;;;;;5033837;28;20196;-66
2023/06/16 10:33:17;;;;;;;1.77;0.60;;;30.30;70.60;;;;;;5025329;28;20635;-67
2023/06/16 10:35:57;;;;;;;0.90;0.90;;;30.40;69.70;;;;;;5017931;28;20682;-66
2023/06/16 10:38:56;;;;;;;1.20;0.90;;;30.70;69.70;;;;;;5028710;28;20656;-67
2023/06/16 10:41:24;;;;;;;1.43;1.33;;;31.00;68.70;;;;;;5026280;28;21097;-66
2023/06/16 10:43:52;;;;;;;1.23;1.10;;;31.00;68.90;;;;;;5024840;28;21173;-66
2023/06/16 10:46:21;;;;;;;1.10;0.70;;;31.50;68.80;;;;;;5033070;28;20649;-66
2023/06/16 10:48:57;;;;;;;0.70;0.70;;;31.90;68.70;;;;;;5032993;28;20651;-66
2023/06/16 10:51:52;;;;;;;0.93;0.83;;;32.00;69.80;;;;;;5026754;28;20623;-66
2023/06/16 10:54:44;;;;;;;0.77;0.70;;;32.00;70.10;;;;;;5004270;28;21036;-66
2023/06/16 10:57:13;;;;;;;0.80;0.70;;;31.50;68.20;;;;;;5032954;28;21026;-66
2023/06/16 10:59:56;;;;;;;1.00;0.90;;;30.90;67.60;;;;;;5032787;28;21161;-66
2023/06/16 11:02:26;;;;;;;0.90;0.60;;;30.40;68.40;;;;;;5025724;28;20731;-66
2023/06/16 11:05:22;;;;;;;1.40;0.70;;;30.30;70.80;;;;;;5032936;28;21038;-66
2023/06/16 11:08:16;;;;;;;0.70;0.70;;;30.00;71.30;;;;;;5024213;28;20675;-66
2023/06/16 11:10:49;;;;;;;0.70;0.60;;;29.90;71.40;;;;;;5016606;28;20612;-66
2023/06/16 11:13:18;;;;;;;0.70;0.70;;;30.20;67.10;;;;;;5021305;28;21481;-66
2023/06/16 11:15:46;;;;;;;0.80;0.70;;;30.50;68.20;;;;;;5012809;28;20626;-65
2023/06/16 11:18:16;;;;;;;0.90;0.50;;;30.60;68.60;;;;;;5034245;28;20781;-66
2023/06/16 11:20:44;;;;;;;0.80;0.80;;;30.70;69.20;;;;;;5045825;28;20626;-66
2023/06/16 11:23:12;;;;;;;0.70;0.53;;;31.10;69.90;;;;;;5035611;28;20635;-66
2023/06/16 11:25:41;;;;;;;0.90;0.80;;;31.50;69.10;;;;;;5037819;28;20630;-66
2023/06/16 11:28:10;;;;;;;0.70;0.70;;;31.70;68.40;;;;;;5050473;28;20650;-66
2023/06/16 11:30:38;;;;;;;0.70;0.50;;;31.70;67.50;;;;;;5044409;28;21091;-66
2023/06/16 11:33:06;;;;;;;0.70;0.60;;;32.10;67.30;;;;;;5034468;28;20629;-67
2023/06/16 11:35:35;;;;;;;1.00;0.80;;;32.40;65.60;;;;;;5033501;28;20639;-67
2023/06/16 11:38:03;;;;;;;0.60;0.50;;;32.40;67.00;;;;;;5033697;28;20641;-67
2023/06/16 11:40:31;;;;;;;0.70;0.63;;;32.50;66.70;;;;;;5032462;28;20718;-67
2023/06/16 11:43:02;;;;;;;0.97;0.60;;;32.80;66.10;;;;;;5042512;28;20626;-66
2023/06/16 11:45:33;;;;;;;0.70;0.60;;;33.00;64.10;;;;;;5039171;28;20623;-66
2023/06/16 11:48:02;;;;;;;0.70;0.60;;;33.40;64.30;;;;;;5034530;28;20651;-66
2023/06/16 11:50:31;;;;;;;0.60;0.50;;;33.00;64.30;;;;;;5032276;28;20625;-66
2023/06/16 11:52:59;;;;;;;0.70;0.60;;;32.60;66.10;;;;;;5052079;28;20626;-66
2023/06/16 11:55:28;;;;;;;0.67;0.60;;;32.50;66.00;;;;;;5047672;28;20629;-66
2023/06/16 11:57:58;;;;;;;0.70;0.50;;;32.20;64.60;;;;;;5033342;28;20656;-67
2023/06/16 12:00:30;;;;;;;1.17;1.07;;;31.30;64.90;;;;;;5031944;28;20729;-66
2023/06/16 12:02:58;;;;;;;0.70;0.70;;;31.00;65.60;;;;;;5042087;28;21080;-66
2023/06/16 12:05:28;;;;;;;0.90;0.73;;;30.90;65.40;;;;;;5051792;28;20616;-66
2023/06/16 12:07:56;;;;;;;0.83;0.70;;;30.50;66.00;;;;;;5043016;28;20651;-65
2023/06/16 12:10:24;;;;;;;1.57;0.97;;;30.00;65.90;;;;;;5031846;28;20631;-66
2023/06/16 12:12:52;;;;;;;1.00;1.00;;;29.70;67.00;;;;;;5034491;28;20624;-66
2023/06/16 12:15:22;;;;;;;0.90;0.80;;;29.90;66.70;;;;;;5036301;28;20676;-66
2023/06/16 12:17:55;;;;;;;1.10;0.83;;;30.00;66.80;;;;;;5035814;28;20651;-67
2023/06/16 12:20:23;;;;;;;0.70;0.50;;;30.00;68.20;;;;;;5025530;28;20625;-66
2023/06/16 12:22:55;;;;;;;0.60;0.50;;;29.70;68.00;;;;;;5034468;28;20991;-66
2023/06/16 12:25:23;;;;;;;0.98;0.60;;;29.20;69.00;;;;;;5039931;28;20324;-66
2023/06/16 12:27:52;;;;;;;1.17;1.08;;;28.70;70.40;;;;;;5041052;28;20222;-68
2023/06/16 12:30:31;;;;;;;0.77;0.63;;;28.30;70.60;;;;;;5036079;28;20220;-66
2023/06/16 12:33:08;;;;;;;0.80;0.70;;;28.20;70.40;;;;;;5051097;28;20204;-66
2023/06/16 12:35:36;;;;;;;0.90;0.90;;;28.20;71.40;;;;;;5039616;28;20213;-66
2023/06/16 12:38:04;;;;;;;0.82;0.65;;;28.10;69.80;;;;;;5032177;28;20833;-66
2023/06/16 12:40:32;;;;;;;0.70;0.68;;;27.90;72.10;;;;;;5043082;28;20220;-66
2023/06/16 12:43:21;;;;;;;0.70;0.63;;;27.70;73.70;;;;;;5042704;28;20676;-65
2023/06/16 12:45:49;;;;;;;0.90;0.80;;;27.20;76.50;;;;;;5036290;28;20212;-66
2023/06/16 12:48:18;;;;;;;1.25;1.13;;;26.50;80.20;;;;;;5031422;28;20228;-66
2023/06/16 12:50:46;;;;;;;1.13;1.02;;;25.80;82.90;;;;;;5041419;28;20214;-66
2023/06/16 12:53:14;;;;;;;1.00;0.75;;;25.50;85.50;;;;;;5039103;28;20213;-66
2023/06/16 12:55:42;;;;;;;1.10;1.00;;;25.30;87.30;;;;;;5041235;28;20223;-66
2023/06/16 12:58:10;;;;;;;1.35;0.88;;;25.00;87.20;;;;;;5038719;28;20268;-65
2023/06/16 13:00:38;;;;;;;1.02;0.80;;;24.90;88.00;;;;;;5032951;28;20211;-68